sensor_id;sensor_type;location;lat;lon;timestamp;pressure;altitude;pressure_sealevel;temperature
15680;BMP180;15488;48.114;11.532;2024-03-02T00:00:54;94283.00;;;15.30
15680;BMP180;15488;48.114;11.532;2024-03-02T00:03:22;94278.00;;;15.30
15680;BMP180;15488;48.114;11.532;2024-03-02T00:05:50;94279.00;;;15.30
15680;BMP180;15488;48.114;11.532;2024-03-02T00:08:24;94280.00;;;15.30
15680;BMP180;15488;48.114;11.532;2024-03-02T00:10:56;94272.00;;;15.30
15680;BMP180;15488;48.114;11.532;2024-03-02T00:13:26;94279.00;;;15.30
15680;BMP180;15488;48.114;11.532;2024-03-02T00:15:55;94281.00;;;14.90
15680;BMP180;15488;48.114;11.532;2024-03-02T00:18:26;94271.00;;;15.30
15680;BMP180;15488;48.114;11.532;2024-03-02T00:20:55;94268.00;;;15.30
15680;BMP180;15488;48.114;11.532;2024-03-02T00:23:27;94262.00;;;15.30
15680;BMP180;15488;48.114;11.532;2024-03-02T00:25:55;94268.00;;;15.30
15680;BMP180;15488;48.114;11.532;2024-03-02T00:28:25;94259.00;;;15.20
15680;BMP180;15488;48.114;11.532;2024-03-02T00:31:03;94257.00;;;15.20
15680;BMP180;15488;48.114;11.532;2024-03-02T00:33:32;94261.00;;;15.20
15680;BMP180;15488;48.114;11.532;2024-03-02T00:36:01;94259.00;;;15.20
15680;BMP180;15488;48.114;11.532;2024-03-02T00:38:31;94254.00;;;15.20
15680;BMP180;15488;48.114;11.532;2024-03-02T00:41:00;94257.00;;;15.20
15680;BMP180;15488;48.114;11.532;2024-03-02T00:43:42;94255.00;;;15.20
15680;BMP180;15488;48.114;11.532;2024-03-02T00:46:12;94237.00;;;15.20
15680;BMP180;15488;48.114;11.532;2024-03-02T00:48:46;94232.00;;;15.10
15680;BMP180;15488;48.114;11.532;2024-03-02T00:51:15;94241.00;;;15.10
15680;BMP180;15488;48.114;11.532;2024-03-02T00:53:44;94235.00;;;15.00
15680;BMP180;15488;48.114;11.532;2024-03-02T00:56:12;94239.00;;;15.00
15680;BMP180;15488;48.114;11.532;2024-03-02T00:58:40;94249.00;;;15.00
15680;BMP180;15488;48.114;11.532;2024-03-02T01:01:07;94247.00;;;15.00
15680;BMP180;15488;48.114;11.532;2024-03-02T01:03:35;94258.00;;;15.00
15680;BMP180;15488;48.114;11.532;2024-03-02T01:06:05;94262.00;;;15.00
15680;BMP180;15488;48.114;11.532;2024-03-02T01:08:33;94257.00;;;15.00
15680;BMP180;15488;48.114;11.532;2024-03-02T01:11:03;94250.00;;;15.00
15680;BMP180;15488;48.114;11.532;2024-03-02T01:13:31;94253.00;;;15.00
15680;BMP180;15488;48.114;11.532;2024-03-02T01:15:59;94251.00;;;15.00
15680;BMP180;15488;48.114;11.532;2024-03-02T01:18:27;94259.00;;;15.10
15680;BMP180;15488;48.114;11.532;2024-03-02T01:20:54;94253.00;;;15.10
15680;BMP180;15488;48.114;11.532;2024-03-02T01:23:22;94253.00;;;15.00
15680;BMP180;15488;48.114;11.532;2024-03-02T01:25:50;94250.00;;;15.00
15680;BMP180;15488;48.114;11.532;2024-03-02T01:28:19;94258.00;;;15.00
15680;BMP180;15488;48.114;11.532;2024-03-02T01:30:48;94254.00;;;15.00
15680;BMP180;15488;48.114;11.532;2024-03-02T01:33:16;94251.00;;;15.00
15680;BMP180;15488;48.114;11.532;2024-03-02T01:35:43;94250.00;;;15.00
15680;BMP180;15488;48.114;11.532;2024-03-02T01:38:11;94253.00;;;15.00
15680;BMP180;15488;48.114;11.532;2024-03-02T01:40:39;94256.00;;;15.00
15680;BMP180;15488;48.114;11.532;2024-03-02T01:43:07;94252.00;;;15.00
15680;BMP180;15488;48.114;11.532;2024-03-02T01:45:36;94248.00;;;14.90
15680;BMP180;15488;48.114;11.532;2024-03-02T01:48:05;94240.00;;;15.00
15680;BMP180;15488;48.114;11.532;2024-03-02T01:50:33;94247.00;;;15.00
15680;BMP180;15488;48.114;11.532;2024-03-02T01:53:01;94247.00;;;15.00
15680;BMP180;15488;48.114;11.532;2024-03-02T01:55:29;94241.00;;;15.00
15680;BMP180;15488;48.114;11.532;2024-03-02T01:57:57;94237.00;;;15.00
15680;BMP180;15488;48.114;11.532;2024-03-02T02:00:25;94237.00;;;15.00
15680;BMP180;15488;48.114;11.532;2024-03-02T02:02:54;94231.00;;;15.10
15680;BMP180;15488;48.114;11.532;2024-03-02T02:05:22;94233.00;;;15.00
15680;BMP180;15488;48.114;11.532;2024-03-02T02:07:49;94225.00;;;15.00
15680;BMP180;15488;48.114;11.532;2024-03-02T02:10:17;94221.00;;;15.10
15680;BMP180;15488;48.114;11.532;2024-03-02T02:12:45;94215.00;;;15.00
15680;BMP180;15488;48.114;11.532;2024-03-02T02:15:23;94220.00;;;15.10
15680;BMP180;15488;48.114;11.532;2024-03-02T02:17:51;94215.00;;;15.00
15680;BMP180;15488;48.114;11.532;2024-03-02T02:20:20;94206.00;;;15.00
15680;BMP180;15488;48.114;11.532;2024-03-02T02:22:59;94212.00;;;15.00
15680;BMP180;15488;48.114;11.532;2024-03-02T02:25:27;94209.00;;;15.00
15680;BMP180;15488;48.114;11.532;2024-03-02T02:27:55;94212.00;;;15.00
15680;BMP180;15488;48.114;11.532;2024-03-02T02:30:25;94208.00;;;15.00
15680;BMP180;15488;48.114;11.532;2024-03-02T02:32:52;94210.00;;;15.00
15680;BMP180;15488;48.114;11.532;2024-03-02T02:35:20;94210.00;;;15.00
15680;BMP180;15488;48.114;11.532;2024-03-02T02:37:48;94209.00;;;15.00
15680;BMP180;15488;48.114;11.532;2024-03-02T02:40:18;94211.00;;;15.00
15680;BMP180;15488;48.114;11.532;2024-03-02T02:42:46;94215.00;;;15.00
15680;BMP180;15488;48.114;11.532;2024-03-02T02:45:13;94214.00;;;15.00
15680;BMP180;15488;48.114;11.532;2024-03-02T02:47:41;94214.00;;;15.00
15680;BMP180;15488;48.114;11.532;2024-03-02T02:50:10;94215.00;;;14.90
15680;BMP180;15488;48.114;11.532;2024-03-02T02:52:39;94216.00;;;15.00
15680;BMP180;15488;48.114;11.532;2024-03-02T02:55:08;94216.00;;;14.90
15680;BMP180;15488;48.114;11.532;2024-03-02T02:57:38;94219.00;;;14.90
15680;BMP180;15488;48.114;11.532;2024-03-02T03:00:08;94221.00;;;14.90
15680;BMP180;15488;48.114;11.532;2024-03-02T03:02:40;94224.00;;;14.90
15680;BMP180;15488;48.114;11.532;2024-03-02T03:05:09;94226.00;;;14.90
15680;BMP180;15488;48.114;11.532;2024-03-02T03:07:37;94224.00;;;14.90
15680;BMP180;15488;48.114;11.532;2024-03-02T03:10:07;94222.00;;;14.90
15680;BMP180;15488;48.114;11.532;2024-03-02T03:12:35;94220.00;;;14.90
15680;BMP180;15488;48.114;11.532;2024-03-02T03:15:04;94218.00;;;14.90
15680;BMP180;15488;48.114;11.532;2024-03-02T03:17:33;94222.00;;;14.90
15680;BMP180;15488;48.114;11.532;2024-03-02T03:20:01;94226.00;;;14.90
15680;BMP180;15488;48.114;11.532;2024-03-02T03:22:30;94224.00;;;15.00
15680;BMP180;15488;48.114;11.532;2024-03-02T03:24:57;94227.00;;;15.00
15680;BMP180;15488;48.114;11.532;2024-03-02T03:27:25;94224.00;;;15.10
15680;BMP180;15488;48.114;11.532;2024-03-02T03:29:53;94231.00;;;15.10
15680;BMP180;15488;48.114;11.532;2024-03-02T03:32:23;94222.00;;;15.00
15680;BMP180;15488;48.114;11.532;2024-03-02T03:34:51;94234.00;;;15.10
15680;BMP180;15488;48.114;11.532;2024-03-02T03:37:18;94228.00;;;15.00
15680;BMP180;15488;48.114;11.532;2024-03-02T03:39:46;94227.00;;;15.10
15680;BMP180;15488;48.114;11.532;2024-03-02T03:42:13;94229.00;;;15.10
15680;BMP180;15488;48.114;11.532;2024-03-02T03:44:41;94232.00;;;15.10
15680;BMP180;15488;48.114;11.532;2024-03-02T03:47:08;94232.00;;;15.00
15680;BMP180;15488;48.114;11.532;2024-03-02T03:49:37;94237.00;;;15.00
15680;BMP180;15488;48.114;11.532;2024-03-02T03:52:05;94234.00;;;15.00
15680;BMP180;15488;48.114;11.532;2024-03-02T03:54:32;94228.00;;;15.00
15680;BMP180;15488;48.114;11.532;2024-03-02T03:57:00;94235.00;;;15.00
15680;BMP180;15488;48.114;11.532;2024-03-02T03:59:28;94232.00;;;15.10
15680;BMP180;15488;48.114;11.532;2024-03-02T04:01:55;94232.00;;;15.10
15680;BMP180;15488;48.114;11.532;2024-03-02T04:04:23;94230.00;;;15.10
15680;BMP180;15488;48.114;11.532;2024-03-02T04:06:52;94229.00;;;15.00
15680;BMP180;15488;48.114;11.532;2024-03-02T04:09:19;94232.00;;;15.00
15680;BMP180;15488;48.114;11.532;2024-03-02T04:11:47;94230.00;;;14.90
15680;BMP180;15488;48.114;11.532;2024-03-02T04:14:14;94234.00;;;14.90
15680;BMP180;15488;48.114;11.532;2024-03-02T04:16:42;94238.00;;;14.90
15680;BMP180;15488;48.114;11.532;2024-03-02T04:19:09;94242.00;;;14.90
15680;BMP180;15488;48.114;11.532;2024-03-02T04:21:37;94239.00;;;14.90
15680;BMP180;15488;48.114;11.532;2024-03-02T04:24:06;94241.00;;;14.90
15680;BMP180;15488;48.114;11.532;2024-03-02T04:26:34;94249.00;;;14.90
15680;BMP180;15488;48.114;11.532;2024-03-02T04:29:02;94244.00;;;14.90
15680;BMP180;15488;48.114;11.532;2024-03-02T04:31:29;94247.00;;;14.90
15680;BMP180;15488;48.114;11.532;2024-03-02T04:33:57;94245.00;;;15.00
15680;BMP180;15488;48.114;11.532;2024-03-02T04:36:24;94254.00;;;14.90
15680;BMP180;15488;48.114;11.532;2024-03-02T04:38:52;94252.00;;;14.90
15680;BMP180;15488;48.114;11.532;2024-03-02T04:41:21;94252.00;;;14.90
15680;BMP180;15488;48.114;11.532;2024-03-02T04:43:48;94254.00;;;14.90
15680;BMP180;15488;48.114;11.532;2024-03-02T04:46:16;94257.00;;;14.90
15680;BMP180;15488;48.114;11.532;2024-03-02T04:48:43;94266.00;;;14.90
15680;BMP180;15488;48.114;11.532;2024-03-02T04:51:11;94270.00;;;14.90
15680;BMP180;15488;48.114;11.532;2024-03-02T04:53:39;94277.00;;;14.90
15680;BMP180;15488;48.114;11.532;2024-03-02T04:56:07;94280.00;;;14.90
15680;BMP180;15488;48.114;11.532;2024-03-02T04:59:06;94277.00;;;14.90
15680;BMP180;15488;48.114;11.532;2024-03-02T05:01:34;94283.00;;;14.90
15680;BMP180;15488;48.114;11.532;2024-03-02T05:04:01;94284.00;;;14.90
15680;BMP180;15488;48.114;11.532;2024-03-02T05:06:29;94290.00;;;14.90
15680;BMP180;15488;48.114;11.532;2024-03-02T05:08:57;94291.00;;;15.00
15680;BMP180;15488;48.114;11.532;2024-03-02T05:11:24;94287.00;;;14.90
15680;BMP180;15488;48.114;11.532;2024-03-02T05:14:07;94291.00;;;15.00
15680;BMP180;15488;48.114;11.532;2024-03-02T05:16:35;94286.00;;;14.90
15680;BMP180;15488;48.114;11.532;2024-03-02T05:19:04;94283.00;;;14.90
15680;BMP180;15488;48.114;11.532;2024-03-02T05:21:33;94284.00;;;14.90
15680;BMP180;15488;48.114;11.532;2024-03-02T05:24:00;94282.00;;;14.90
15680;BMP180;15488;48.114;11.532;2024-03-02T05:26:28;94280.00;;;15.00
15680;BMP180;15488;48.114;11.532;2024-03-02T05:28:56;94284.00;;;15.00
15680;BMP180;15488;48.114;11.532;2024-03-02T05:31:24;94281.00;;;14.90
15680;BMP180;15488;48.114;11.532;2024-03-02T05:33:52;94279.00;;;14.90
15680;BMP180;15488;48.114;11.532;2024-03-02T05:36:20;94277.00;;;14.90
15680;BMP180;15488;48.114;11.532;2024-03-02T05:38:47;94280.00;;;15.00
15680;BMP180;15488;48.114;11.532;2024-03-02T05:41:15;94286.00;;;15.00
15680;BMP180;15488;48.114;11.532;2024-03-02T05:43:42;94291.00;;;14.90
15680;BMP180;15488;48.114;11.532;2024-03-02T05:46:10;94292.00;;;15.00
15680;BMP180;15488;48.114;11.532;2024-03-02T05:48:39;94287.00;;;15.00
15680;BMP180;15488;48.114;11.532;2024-03-02T05:51:07;94293.00;;;15.00
15680;BMP180;15488;48.114;11.532;2024-03-02T05:53:34;94301.00;;;14.90
15680;BMP180;15488;48.114;11.532;2024-03-02T05:56:04;94293.00;;;15.00
15680;BMP180;15488;48.114;11.532;2024-03-02T05:58:32;94300.00;;;15.00
15680;BMP180;15488;48.114;11.532;2024-03-02T06:01:12;94295.00;;;15.00
15680;BMP180;15488;48.114;11.532;2024-03-02T06:03:41;94301.00;;;14.90
15680;BMP180;15488;48.114;11.532;2024-03-02T06:06:09;94289.00;;;14.90
15680;BMP180;15488;48.114;11.532;2024-03-02T06:08:36;94294.00;;;14.90
15680;BMP180;15488;48.114;11.532;2024-03-02T06:11:04;94300.00;;;14.90
15680;BMP180;15488;48.114;11.532;2024-03-02T06:13:31;94294.00;;;15.00
15680;BMP180;15488;48.114;11.532;2024-03-02T06:15:59;94296.00;;;15.10
15680;BMP180;15488;48.114;11.532;2024-03-02T06:18:26;94297.00;;;14.90
15680;BMP180;15488;48.114;11.532;2024-03-02T06:20:56;94296.00;;;14.90
15680;BMP180;15488;48.114;11.532;2024-03-02T06:23:24;94292.00;;;14.90
15680;BMP180;15488;48.114;11.532;2024-03-02T06:25:51;94295.00;;;14.90
15680;BMP180;15488;48.114;11.532;2024-03-02T06:28:19;94290.00;;;14.90
15680;BMP180;15488;48.114;11.532;2024-03-02T06:30:46;94286.00;;;14.90
15680;BMP180;15488;48.114;11.532;2024-03-02T06:33:14;94289.00;;;14.90
15680;BMP180;15488;48.114;11.532;2024-03-02T06:35:42;94287.00;;;15.00
15680;BMP180;15488;48.114;11.532;2024-03-02T06:38:11;94282.00;;;14.90
15680;BMP180;15488;48.114;11.532;2024-03-02T06:40:38;94282.00;;;15.00
15680;BMP180;15488;48.114;11.532;2024-03-02T06:43:06;94289.00;;;15.00
15680;BMP180;15488;48.114;11.532;2024-03-02T06:45:34;94298.00;;;14.90
15680;BMP180;15488;48.114;11.532;2024-03-02T06:48:02;94289.00;;;14.90
15680;BMP180;15488;48.114;11.532;2024-03-02T06:50:29;94291.00;;;14.90
15680;BMP180;15488;48.114;11.532;2024-03-02T06:52:57;94285.00;;;14.90
15680;BMP180;15488;48.114;11.532;2024-03-02T06:55:26;94280.00;;;14.90
15680;BMP180;15488;48.114;11.532;2024-03-02T06:57:53;94284.00;;;14.90
15680;BMP180;15488;48.114;11.532;2024-03-02T07:00:21;94285.00;;;14.90
15680;BMP180;15488;48.114;11.532;2024-03-02T07:02:48;94285.00;;;14.90
15680;BMP180;15488;48.114;11.532;2024-03-02T07:05:16;94284.00;;;14.90
15680;BMP180;15488;48.114;11.532;2024-03-02T07:07:43;94274.00;;;15.00
15680;BMP180;15488;48.114;11.532;2024-03-02T07:10:11;94280.00;;;14.90
15680;BMP180;15488;48.114;11.532;2024-03-02T07:12:40;94282.00;;;14.90
15680;BMP180;15488;48.114;11.532;2024-03-02T07:15:08;94281.00;;;15.00
15680;BMP180;15488;48.114;11.532;2024-03-02T07:17:51;94286.00;;;15.00
15680;BMP180;15488;48.114;11.532;2024-03-02T07:20:18;94295.00;;;14.90
15680;BMP180;15488;48.114;11.532;2024-03-02T07:22:46;94286.00;;;14.70
15680;BMP180;15488;48.114;11.532;2024-03-02T07:25:14;94297.00;;;14.90
15680;BMP180;15488;48.114;11.532;2024-03-02T07:27:43;94297.00;;;14.90
15680;BMP180;15488;48.114;11.532;2024-03-02T07:30:14;94300.00;;;14.90
15680;BMP180;15488;48.114;11.532;2024-03-02T07:32:43;94299.00;;;14.90
15680;BMP180;15488;48.114;11.532;2024-03-02T07:35:12;94306.00;;;14.90
15680;BMP180;15488;48.114;11.532;2024-03-02T07:37:41;94306.00;;;14.90
15680;BMP180;15488;48.114;11.532;2024-03-02T07:40:10;94309.00;;;14.90
15680;BMP180;15488;48.114;11.532;2024-03-02T07:42:38;94314.00;;;15.00
15680;BMP180;15488;48.114;11.532;2024-03-02T07:45:08;94313.00;;;15.00
15680;BMP180;15488;48.114;11.532;2024-03-02T07:47:36;94313.00;;;15.10
15680;BMP180;15488;48.114;11.532;2024-03-02T07:50:04;94306.00;;;15.10
15680;BMP180;15488;48.114;11.532;2024-03-02T07:52:32;94312.00;;;15.00
15680;BMP180;15488;48.114;11.532;2024-03-02T07:55:00;94314.00;;;15.00
15680;BMP180;15488;48.114;11.532;2024-03-02T07:57:28;94307.00;;;15.00
15680;BMP180;15488;48.114;11.532;2024-03-02T07:59:55;94220.00;;;15.00
15680;BMP180;15488;48.114;11.532;2024-03-02T08:02:26;94299.00;;;15.20
15680;BMP180;15488;48.114;11.532;2024-03-02T08:04:54;94302.00;;;15.10
15680;BMP180;15488;48.114;11.532;2024-03-02T08:07:22;94304.00;;;15.20
15680;BMP180;15488;48.114;11.532;2024-03-02T08:09:49;94307.00;;;15.20
15680;BMP180;15488;48.114;11.532;2024-03-02T08:12:17;94309.00;;;15.20
15680;BMP180;15488;48.114;11.532;2024-03-02T08:14:45;94306.00;;;15.30
15680;BMP180;15488;48.114;11.532;2024-03-02T08:17:13;94300.00;;;15.30
15680;BMP180;15488;48.114;11.532;2024-03-02T08:19:42;94308.00;;;14.90
15680;BMP180;15488;48.114;11.532;2024-03-02T08:22:10;94315.00;;;15.20
15680;BMP180;15488;48.114;11.532;2024-03-02T08:24:38;94315.00;;;15.40
15680;BMP180;15488;48.114;11.532;2024-03-02T08:27:05;94312.00;;;15.30
15680;BMP180;15488;48.114;11.532;2024-03-02T08:29:33;94318.00;;;15.30
15680;BMP180;15488;48.114;11.532;2024-03-02T08:32:01;94322.00;;;15.30
15680;BMP180;15488;48.114;11.532;2024-03-02T08:34:28;94315.00;;;15.40
15680;BMP180;15488;48.114;11.532;2024-03-02T08:36:57;94315.00;;;15.40
15680;BMP180;15488;48.114;11.532;2024-03-02T08:39:25;94318.00;;;15.40
15680;BMP180;15488;48.114;11.532;2024-03-02T08:41:52;94320.00;;;15.50
15680;BMP180;15488;48.114;11.532;2024-03-02T08:44:20;94257.00;;;15.20
15680;BMP180;15488;48.114;11.532;2024-03-02T08:46:48;94325.00;;;15.60
15680;BMP180;15488;48.114;11.532;2024-03-02T08:49:16;94320.00;;;15.70
15680;BMP180;15488;48.114;11.532;2024-03-02T08:51:43;94316.00;;;15.70
15680;BMP180;15488;48.114;11.532;2024-03-02T08:54:12;94317.00;;;15.70
15680;BMP180;15488;48.114;11.532;2024-03-02T08:56:40;94317.00;;;15.80
15680;BMP180;15488;48.114;11.532;2024-03-02T08:59:07;94321.00;;;15.80
15680;BMP180;15488;48.114;11.532;2024-03-02T09:01:35;94322.00;;;15.80
15680;BMP180;15488;48.114;11.532;2024-03-02T09:04:07;94316.00;;;16.00
15680;BMP180;15488;48.114;11.532;2024-03-02T09:06:35;94321.00;;;16.10
15680;BMP180;15488;48.114;11.532;2024-03-02T09:09:03;94323.00;;;16.10
15680;BMP180;15488;48.114;11.532;2024-03-02T09:11:32;94323.00;;;16.10
15680;BMP180;15488;48.114;11.532;2024-03-02T09:14:00;94329.00;;;16.10
15680;BMP180;15488;48.114;11.532;2024-03-02T09:16:28;94322.00;;;16.20
15680;BMP180;15488;48.114;11.532;2024-03-02T09:18:57;94324.00;;;16.30
15680;BMP180;15488;48.114;11.532;2024-03-02T09:21:24;94324.00;;;16.40
15680;BMP180;15488;48.114;11.532;2024-03-02T09:23:52;94328.00;;;16.50
15680;BMP180;15488;48.114;11.532;2024-03-02T09:26:20;94319.00;;;16.60
15680;BMP180;15488;48.114;11.532;2024-03-02T09:28:50;94322.00;;;16.40
15680;BMP180;15488;48.114;11.532;2024-03-02T09:31:17;94324.00;;;16.40
15680;BMP180;15488;48.114;11.532;2024-03-02T09:33:45;94323.00;;;16.50
15680;BMP180;15488;48.114;11.532;2024-03-02T09:36:19;94317.00;;;16.50
15680;BMP180;15488;48.114;11.532;2024-03-02T09:38:46;94312.00;;;16.70
15680;BMP180;15488;48.114;11.532;2024-03-02T09:41:14;94325.00;;;16.80
15680;BMP180;15488;48.114;11.532;2024-03-02T09:43:42;94324.00;;;16.80
15680;BMP180;15488;48.114;11.532;2024-03-02T09:46:11;94317.00;;;16.80
15680;BMP180;15488;48.114;11.532;2024-03-02T09:48:39;94309.00;;;16.90
15680;BMP180;15488;48.114;11.532;2024-03-02T09:51:07;94312.00;;;16.90
15680;BMP180;15488;48.114;11.532;2024-03-02T09:53:35;94310.00;;;17.10
15680;BMP180;15488;48.114;11.532;2024-03-02T09:56:03;94310.00;;;17.00
15680;BMP180;15488;48.114;11.532;2024-03-02T09:58:31;94310.00;;;17.10
15680;BMP180;15488;48.114;11.532;2024-03-02T10:00:58;94308.00;;;17.20
15680;BMP180;15488;48.114;11.532;2024-03-02T10:03:29;94300.00;;;17.30
15680;BMP180;15488;48.114;11.532;2024-03-02T10:06:19;94307.00;;;17.30
15680;BMP180;15488;48.114;11.532;2024-03-02T10:08:47;94309.00;;;17.30
15680;BMP180;15488;48.114;11.532;2024-03-02T10:11:27;94308.00;;;17.20
15680;BMP180;15488;48.114;11.532;2024-03-02T10:14:05;94303.00;;;17.30
15680;BMP180;15488;48.114;11.532;2024-03-02T10:16:35;94304.00;;;17.40
15680;BMP180;15488;48.114;11.532;2024-03-02T10:19:25;94306.00;;;17.50
15680;BMP180;15488;48.114;11.532;2024-03-02T10:21:54;94304.00;;;17.50
15680;BMP180;15488;48.114;11.532;2024-03-02T10:24:23;94302.00;;;17.50
15680;BMP180;15488;48.114;11.532;2024-03-02T10:26:51;94297.00;;;17.60
15680;BMP180;15488;48.114;11.532;2024-03-02T10:29:19;94293.00;;;17.60
15680;BMP180;15488;48.114;11.532;2024-03-02T10:31:47;94290.00;;;17.60
15680;BMP180;15488;48.114;11.532;2024-03-02T10:34:15;94294.00;;;17.70
15680;BMP180;15488;48.114;11.532;2024-03-02T10:36:44;94290.00;;;17.70
15680;BMP180;15488;48.114;11.532;2024-03-02T10:39:14;94278.00;;;17.70
15680;BMP180;15488;48.114;11.532;2024-03-02T10:41:41;94285.00;;;17.80
15680;BMP180;15488;48.114;11.532;2024-03-02T10:44:10;94280.00;;;17.80
15680;BMP180;15488;48.114;11.532;2024-03-02T10:46:38;94277.00;;;17.80
15680;BMP180;15488;48.114;11.532;2024-03-02T10:49:06;94264.00;;;17.60
15680;BMP180;15488;48.114;11.532;2024-03-02T10:51:35;94263.00;;;17.80
15680;BMP180;15488;48.114;11.532;2024-03-02T10:54:05;94259.00;;;17.90
15680;BMP180;15488;48.114;11.532;2024-03-02T10:56:34;94261.00;;;18.10
15680;BMP180;15488;48.114;11.532;2024-03-02T10:59:06;94256.00;;;18.00
15680;BMP180;15488;48.114;11.532;2024-03-02T11:01:39;94252.00;;;18.10
15680;BMP180;15488;48.114;11.532;2024-03-02T11:04:13;94249.00;;;18.20
15680;BMP180;15488;48.114;11.532;2024-03-02T11:06:47;94250.00;;;18.30
15680;BMP180;15488;48.114;11.532;2024-03-02T11:09:19;94237.00;;;18.30
15680;BMP180;15488;48.114;11.532;2024-03-02T11:11:53;94232.00;;;18.30
15680;BMP180;15488;48.114;11.532;2024-03-02T11:14:24;94233.00;;;18.40
15680;BMP180;15488;48.114;11.532;2024-03-02T11:16:53;94222.00;;;18.50
15680;BMP180;15488;48.114;11.532;2024-03-02T11:19:21;94222.00;;;18.50
15680;BMP180;15488;48.114;11.532;2024-03-02T11:21:49;94228.00;;;18.60
15680;BMP180;15488;48.114;11.532;2024-03-02T11:24:34;94217.00;;;18.70
15680;BMP180;15488;48.114;11.532;2024-03-02T11:27:02;94208.00;;;18.90
15680;BMP180;15488;48.114;11.532;2024-03-02T11:29:46;94210.00;;;18.80
15680;BMP180;15488;48.114;11.532;2024-03-02T11:32:17;94206.00;;;18.90
15680;BMP180;15488;48.114;11.532;2024-03-02T11:34:46;94205.00;;;18.90
15680;BMP180;15488;48.114;11.532;2024-03-02T11:37:16;94201.00;;;19.00
15680;BMP180;15488;48.114;11.532;2024-03-02T11:39:46;94199.00;;;19.10
15680;BMP180;15488;48.114;11.532;2024-03-02T11:42:15;94197.00;;;19.20
15680;BMP180;15488;48.114;11.532;2024-03-02T11:44:44;94185.00;;;19.30
15680;BMP180;15488;48.114;11.532;2024-03-02T11:47:14;94187.00;;;19.40
15680;BMP180;15488;48.114;11.532;2024-03-02T11:49:43;94181.00;;;19.50
15680;BMP180;15488;48.114;11.532;2024-03-02T11:52:13;94173.00;;;19.70
15680;BMP180;15488;48.114;11.532;2024-03-02T11:54:45;94178.00;;;19.80
15680;BMP180;15488;48.114;11.532;2024-03-02T11:57:15;94169.00;;;19.80
15680;BMP180;15488;48.114;11.532;2024-03-02T11:59:43;94166.00;;;19.90
15680;BMP180;15488;48.114;11.532;2024-03-02T12:02:15;94155.00;;;20.10
15680;BMP180;15488;48.114;11.532;2024-03-02T12:04:44;94159.00;;;20.20
15680;BMP180;15488;48.114;11.532;2024-03-02T12:07:12;94159.00;;;20.30
15680;BMP180;15488;48.114;11.532;2024-03-02T12:09:46;94153.00;;;20.40
15680;BMP180;15488;48.114;11.532;2024-03-02T12:12:14;94154.00;;;20.50
15680;BMP180;15488;48.114;11.532;2024-03-02T12:14:51;94149.00;;;20.60
15680;BMP180;15488;48.114;11.532;2024-03-02T12:17:19;94144.00;;;20.70
15680;BMP180;15488;48.114;11.532;2024-03-02T12:19:47;94141.00;;;20.80
15680;BMP180;15488;48.114;11.532;2024-03-02T12:22:14;94136.00;;;20.80
15680;BMP180;15488;48.114;11.532;2024-03-02T12:24:43;94134.00;;;20.90
15680;BMP180;15488;48.114;11.532;2024-03-02T12:27:15;94133.00;;;20.90
15680;BMP180;15488;48.114;11.532;2024-03-02T12:29:44;94123.00;;;21.00
15680;BMP180;15488;48.114;11.532;2024-03-02T12:32:12;94120.00;;;21.10
15680;BMP180;15488;48.114;11.532;2024-03-02T12:34:40;94120.00;;;21.20
15680;BMP180;15488;48.114;11.532;2024-03-02T12:37:07;94116.00;;;21.30
15680;BMP180;15488;48.114;11.532;2024-03-02T12:39:35;94107.00;;;21.40
15680;BMP180;15488;48.114;11.532;2024-03-02T12:42:03;94105.00;;;21.50
15680;BMP180;15488;48.114;11.532;2024-03-02T12:44:32;94104.00;;;21.60
15680;BMP180;15488;48.114;11.532;2024-03-02T12:47:00;94099.00;;;21.70
15680;BMP180;15488;48.114;11.532;2024-03-02T12:49:28;94004.00;;;21.80
15680;BMP180;15488;48.114;11.532;2024-03-02T12:51:57;94092.00;;;22.00
15680;BMP180;15488;48.114;11.532;2024-03-02T12:54:24;94089.00;;;22.10
15680;BMP180;15488;48.114;11.532;2024-03-02T12:56:53;94081.00;;;22.20
15680;BMP180;15488;48.114;11.532;2024-03-02T12:59:23;94077.00;;;22.40
15680;BMP180;15488;48.114;11.532;2024-03-02T13:01:54;94081.00;;;22.60
15680;BMP180;15488;48.114;11.532;2024-03-02T13:04:24;94075.00;;;22.80
15680;BMP180;15488;48.114;11.532;2024-03-02T13:06:54;94067.00;;;23.00
15680;BMP180;15488;48.114;11.532;2024-03-02T13:09:24;94072.00;;;23.20
15680;BMP180;15488;48.114;11.532;2024-03-02T13:11:51;94074.00;;;23.40
15680;BMP180;15488;48.114;11.532;2024-03-02T13:14:21;94066.00;;;23.60
15680;BMP180;15488;48.114;11.532;2024-03-02T13:16:51;94060.00;;;23.80
15680;BMP180;15488;48.114;11.532;2024-03-02T13:19:20;94050.00;;;24.00
15680;BMP180;15488;48.114;11.532;2024-03-02T13:21:47;94056.00;;;24.20
15680;BMP180;15488;48.114;11.532;2024-03-02T13:24:16;94058.00;;;24.50
15680;BMP180;15488;48.114;11.532;2024-03-02T13:26:44;94048.00;;;24.70
15680;BMP180;15488;48.114;11.532;2024-03-02T13:29:12;94051.00;;;24.90
15680;BMP180;15488;48.114;11.532;2024-03-02T13:31:39;94043.00;;;25.10
15680;BMP180;15488;48.114;11.532;2024-03-02T13:34:07;94045.00;;;25.40
15680;BMP180;15488;48.114;11.532;2024-03-02T13:36:36;94042.00;;;25.50
15680;BMP180;15488;48.114;11.532;2024-03-02T13:39:04;94039.00;;;25.80
15680;BMP180;15488;48.114;11.532;2024-03-02T13:41:35;94031.00;;;26.00
15680;BMP180;15488;48.114;11.532;2024-03-02T13:44:03;94035.00;;;26.10
15680;BMP180;15488;48.114;11.532;2024-03-02T13:46:31;94037.00;;;26.30
15680;BMP180;15488;48.114;11.532;2024-03-02T13:48:58;94039.00;;;26.50
15680;BMP180;15488;48.114;11.532;2024-03-02T13:51:27;94037.00;;;26.70
15680;BMP180;15488;48.114;11.532;2024-03-02T13:53:56;94033.00;;;26.90
15680;BMP180;15488;48.114;11.532;2024-03-02T13:56:24;94038.00;;;27.10
15680;BMP180;15488;48.114;11.532;2024-03-02T13:58:51;94042.00;;;27.30
15680;BMP180;15488;48.114;11.532;2024-03-02T14:01:19;94035.00;;;27.40
15680;BMP180;15488;48.114;11.532;2024-03-02T14:03:47;94030.00;;;27.50
15680;BMP180;15488;48.114;11.532;2024-03-02T14:06:14;94023.00;;;27.70